createdAt,value
2017-11-27T00:00:32.607Z,76.10
2017-11-27T00:03:00.070Z,76.00
2017-11-27T00:05:28.029Z,76.00
2017-11-27T00:07:55.901Z,76.10
2017-11-27T00:10:23.381Z,76.20
2017-11-27T00:12:51.609Z,76.10
2017-11-27T00:15:19.256Z,76.10
2017-11-27T00:17:46.814Z,76.20
2017-11-27T00:20:14.313Z,76.30
2017-11-27T00:22:42.237Z,76.00
2017-11-27T00:25:09.732Z,76.00
2017-11-27T00:27:37.217Z,76.00
2017-11-27T00:30:05.115Z,76.00
2017-11-27T00:32:32.580Z,76.00
2017-11-27T00:35:00.034Z,76.00
2017-11-27T00:37:27.587Z,75.90
2017-11-27T00:39:55.589Z,75.90
2017-11-27T00:42:23.363Z,75.90
2017-11-27T00:44:51.290Z,75.70
2017-11-27T00:47:18.734Z,75.80
2017-11-27T00:49:46.208Z,75.70
2017-11-27T00:52:14.179Z,75.70
2017-11-27T00:54:41.650Z,75.60
2017-11-27T00:57:09.517Z,75.60
2017-11-27T00:59:36.976Z,75.50
2017-11-27T01:02:04.446Z,75.70
2017-11-27T01:04:33.226Z,75.70
2017-11-27T01:07:00.662Z,75.60
2017-11-27T01:09:28.550Z,75.70
2017-11-27T01:11:55.994Z,75.80
2017-11-27T01:14:23.765Z,75.70
2017-11-27T01:16:51.203Z,75.70
2017-11-27T01:19:18.653Z,75.80
2017-11-27T01:21:46.168Z,75.90
2017-11-27T01:24:14.393Z,76.10
2017-11-27T01:26:42.490Z,76.00
2017-11-27T01:29:09.967Z,76.00
2017-11-27T01:31:38.184Z,76.20
2017-11-27T01:34:05.619Z,76.10
2017-11-27T01:36:33.083Z,76.10
2017-11-27T01:39:01.094Z,76.20
2017-11-27T01:41:29.167Z,76.10
2017-11-27T01:43:58.065Z,76.10
2017-11-27T01:46:25.890Z,76.20
2017-11-27T01:48:53.959Z,76.30
2017-11-27T01:51:21.390Z,76.20
2017-11-27T01:53:48.844Z,76.40
2017-11-27T01:56:17.282Z,76.30
2017-11-27T01:58:44.748Z,76.20
2017-11-27T02:01:12.404Z,76.40
2017-11-27T02:03:39.870Z,76.20
2017-11-27T02:06:07.486Z,76.60
2017-11-27T02:08:35.498Z,76.00
2017-11-27T02:11:03.558Z,76.00
2017-11-27T02:13:31.022Z,76.00
2017-11-27T02:15:58.467Z,75.80
2017-11-27T02:18:25.943Z,75.70
2017-11-27T02:20:53.393Z,75.90
2017-11-27T02:23:20.873Z,75.80
2017-11-27T02:25:49.722Z,76.00
2017-11-27T02:28:17.178Z,76.00
2017-11-27T02:30:45.154Z,76.10
2017-11-27T02:33:13.056Z,76.00
2017-11-27T02:35:41.811Z,76.20
2017-11-27T02:38:09.275Z,76.10
2017-11-27T02:40:37.132Z,76.20
2017-11-27T02:43:05.204Z,76.10
2017-11-27T02:45:32.658Z,76.20
2017-11-27T02:48:00.287Z,76.20
2017-11-27T02:50:27.759Z,76.40
2017-11-27T02:52:55.206Z,76.30
2017-11-27T02:55:22.678Z,76.20
2017-11-27T02:57:50.149Z,76.40
2017-11-27T03:00:17.644Z,76.30
2017-11-27T03:02:45.870Z,76.10
2017-11-27T03:05:13.410Z,76.10
2017-11-27T03:07:40.933Z,76.10
2017-11-27T03:10:09.644Z,76.20
2017-11-27T03:12:37.113Z,76.20
2017-11-27T03:15:05.263Z,76.30
2017-11-27T03:17:32.704Z,76.30
2017-11-27T03:20:00.335Z,76.30
2017-11-27T03:22:30.104Z,76.30
2017-11-27T03:24:57.580Z,76.30
2017-11-27T03:27:25.118Z,76.20
2017-11-27T03:29:52.835Z,76.30
2017-11-27T03:32:21.394Z,76.40
2017-11-27T03:34:48.846Z,76.20
2017-11-27T03:37:16.711Z,76.40
2017-11-27T03:39:44.157Z,76.30
2017-11-27T03:42:11.634Z,76.50
2017-11-27T03:44:39.596Z,76.50
2017-11-27T03:47:07.040Z,76.40
2017-11-27T03:49:35.071Z,76.50
2017-11-27T03:52:02.521Z,76.40
2017-11-27T03:54:30.138Z,76.40
2017-11-27T03:56:57.657Z,76.50
2017-11-27T03:59:25.094Z,76.50
2017-11-27T04:01:52.713Z,76.50
2017-11-27T04:04:20.174Z,76.40
2017-11-27T04:06:47.942Z,76.30
2017-11-27T04:09:15.806Z,76.10
2017-11-27T04:11:43.258Z,76.00
2017-11-27T04:14:10.742Z,76.30
2017-11-27T04:16:39.543Z,76.30
2017-11-27T04:19:08.493Z,76.00
2017-11-27T04:21:35.970Z,76.00
2017-11-27T04:24:04.293Z,76.20
2017-11-27T04:26:31.867Z,76.20
2017-11-27T04:28:59.732Z,76.10
2017-11-27T04:31:27.584Z,76.10
2017-11-27T04:33:55.027Z,76.10
2017-11-27T04:36:22.489Z,76.30
2017-11-27T04:38:50.054Z,76.20
2017-11-27T04:41:17.819Z,76.10
2017-11-27T04:43:45.686Z,76.10
2017-11-27T04:46:13.141Z,76.20
2017-11-27T04:48:40.826Z,76.10
2017-11-27T04:51:08.285Z,76.20
2017-11-27T04:53:36.226Z,76.20
2017-11-27T04:56:03.681Z,76.20
2017-11-27T04:58:31.690Z,76.30
2017-11-27T05:00:59.130Z,76.20
2017-11-27T05:03:26.603Z,76.00
2017-11-27T05:05:54.046Z,75.80
2017-11-27T05:08:22.027Z,75.70
2017-11-27T05:10:49.465Z,75.60
2017-11-27T05:13:17.286Z,75.60
2017-11-27T05:15:45.118Z,75.70
2017-11-27T05:18:13.766Z,75.50
2017-11-27T05:20:41.218Z,75.50
2017-11-27T05:23:08.819Z,75.50
2017-11-27T05:25:37.056Z,74.90
2017-11-27T05:28:04.716Z,75.00
2017-11-27T05:30:32.181Z,75.00
2017-11-27T05:32:59.649Z,75.10
2017-11-27T05:35:27.314Z,75.10
2017-11-27T05:37:54.788Z,75.00
2017-11-27T05:40:22.231Z,74.90
2017-11-27T05:42:51.054Z,75.10
2017-11-27T05:45:18.506Z,75.00
2017-11-27T05:47:47.196Z,75.00
2017-11-27T05:50:15.405Z,75.10
2017-11-27T05:52:42.878Z,75.00
2017-11-27T05:55:10.467Z,74.90
2017-11-27T05:57:38.822Z,75.50
2017-11-27T06:00:06.362Z,74.80
2017-11-27T06:02:34.861Z,74.80
2017-11-27T06:05:02.302Z,74.80
2017-11-27T06:07:29.852Z,74.90
2017-11-27T06:09:59.651Z,74.80
2017-11-27T06:12:27.100Z,74.70
2017-11-27T06:14:55.118Z,74.80
2017-11-27T06:17:23.085Z,74.80
2017-11-27T06:19:50.563Z,74.70
2017-11-27T06:22:18.032Z,74.50
2017-11-27T06:24:46.264Z,74.80
2017-11-27T06:27:13.939Z,74.80
2017-11-27T06:29:41.389Z,74.80
2017-11-27T06:32:08.938Z,74.80
2017-11-27T06:34:36.383Z,74.60
2017-11-27T06:37:03.881Z,74.40
2017-11-27T06:39:31.338Z,74.30
2017-11-27T06:41:58.851Z,74.30
2017-11-27T06:44:26.651Z,74.30
2017-11-27T06:46:54.177Z,74.30
2017-11-27T06:49:21.955Z,74.20
2017-11-27T06:51:49.626Z,74.20
2017-11-27T06:54:17.414Z,74.00
2017-11-27T06:56:44.900Z,74.00
2017-11-27T06:59:13.132Z,73.80
2017-11-27T07:01:40.857Z,73.70
2017-11-27T07:04:08.315Z,73.80
2017-11-27T07:06:35.794Z,73.70
2017-11-27T07:09:03.878Z,73.50
2017-11-27T07:11:32.862Z,73.20
2017-11-27T07:14:00.300Z,73.30
2017-11-27T07:16:28.000Z,72.90
2017-11-27T07:18:55.462Z,73.20
2017-11-27T07:21:23.709Z,73.60
2017-11-27T07:23:51.252Z,73.60
2017-11-27T07:26:18.714Z,73.90
2017-11-27T07:28:46.155Z,74.20
2017-11-27T07:31:14.061Z,74.00
2017-11-27T07:33:41.547Z,74.10
2017-11-27T07:36:10.116Z,74.40
2017-11-27T07:38:44.074Z,75.30
2017-11-27T07:41:11.638Z,74.70
2017-11-27T07:43:39.520Z,74.80
2017-11-27T07:46:07.054Z,75.20
2017-11-27T07:48:34.488Z,75.50
2017-11-27T07:51:02.102Z,75.50
2017-11-27T07:53:29.535Z,76.00
2017-11-27T07:55:57.119Z,76.40
2017-11-27T07:58:25.460Z,77.00
2017-11-27T08:00:52.887Z,77.00
2017-11-27T08:03:20.691Z,77.30
2017-11-27T08:05:49.628Z,78.00
2017-11-27T08:08:17.946Z,78.40
2017-11-27T08:10:45.915Z,78.40
2017-11-27T08:13:13.473Z,78.80
2017-11-27T08:15:40.938Z,79.00
2017-11-27T08:18:08.490Z,79.60
2017-11-27T08:20:35.949Z,79.60
2017-11-27T08:23:03.420Z,79.70
2017-11-27T08:25:31.405Z,79.30
2017-11-27T08:27:59.719Z,79.70
2017-11-27T08:30:27.964Z,79.80
2017-11-27T08:32:55.511Z,79.80
2017-11-27T08:35:22.946Z,79.90
2017-11-27T08:37:50.410Z,80.10
2017-11-27T08:40:17.851Z,80.20
2017-11-27T08:42:45.918Z,80.40
2017-11-27T08:45:13.349Z,80.20
2017-11-27T08:47:41.713Z,80.70
2017-11-27T08:50:09.936Z,80.80
2017-11-27T08:52:37.416Z,80.60
2017-11-27T08:55:04.863Z,80.70
2017-11-27T08:57:33.292Z,80.20
2017-11-27T09:00:02.107Z,80.70
2017-11-27T09:02:29.538Z,80.70
2017-11-27T09:04:57.021Z,80.60
2017-11-27T09:07:25.092Z,81.00
2017-11-27T09:09:52.796Z,81.00
2017-11-27T09:12:20.289Z,80.60
2017-11-27T09:14:48.520Z,80.80
2017-11-27T09:17:16.047Z,80.80
2017-11-27T09:19:44.521Z,80.70
2017-11-27T09:22:12.004Z,81.00
2017-11-27T09:24:39.640Z,81.00
2017-11-27T09:27:12.758Z,81.20
2017-11-27T09:29:40.194Z,81.20
2017-11-27T09:32:07.662Z,81.40
2017-11-27T09:34:35.947Z,81.20
2017-11-27T09:37:03.410Z,81.40
2017-11-27T09:39:30.860Z,81.30
2017-11-27T09:41:58.365Z,81.70
2017-11-27T09:44:26.221Z,81.90
2017-11-27T09:46:54.446Z,82.00
2017-11-27T09:49:22.427Z,81.90
2017-11-27T09:51:50.087Z,82.20
2017-11-27T09:54:17.533Z,82.40
2017-11-27T09:56:44.989Z,82.50
2017-11-27T09:59:12.681Z,82.50
2017-11-27T10:01:40.134Z,82.50
2017-11-27T10:04:08.083Z,82.50
2017-11-27T10:06:35.537Z,82.60
2017-11-27T10:09:02.976Z,82.90
2017-11-27T10:11:30.442Z,82.80
2017-11-27T10:13:57.874Z,82.80
2017-11-27T10:16:25.466Z,82.90
2017-11-27T10:18:53.283Z,83.10
2017-11-27T10:21:20.775Z,83.00
2017-11-27T10:23:48.423Z,83.00
2017-11-27T10:26:15.888Z,82.80
2017-11-27T10:28:43.323Z,83.00
2017-11-27T10:31:10.789Z,83.00
2017-11-27T10:33:38.388Z,83.20
2017-11-27T10:36:05.849Z,83.20
2017-11-27T10:38:33.314Z,83.20
2017-11-27T10:41:01.305Z,83.20
2017-11-27T10:43:29.956Z,84.20
2017-11-27T10:45:58.100Z,83.50
2017-11-27T10:48:25.550Z,83.50
2017-11-27T10:50:53.310Z,83.70
2017-11-27T10:53:20.767Z,83.80
2017-11-27T10:55:48.225Z,83.50
2017-11-27T10:58:15.679Z,83.60
2017-11-27T11:00:48.769Z,83.60
2017-11-27T11:03:16.863Z,83.90
2017-11-27T11:05:44.387Z,84.10
2017-11-27T11:08:11.852Z,84.20
2017-11-27T11:10:39.568Z,84.30
2017-11-27T11:13:07.009Z,84.20
2017-11-27T11:15:34.664Z,84.20
2017-11-27T11:18:03.038Z,84.10
2017-11-27T11:20:30.628Z,84.00
2017-11-27T11:22:58.916Z,84.20
2017-11-27T11:25:27.149Z,84.20
2017-11-27T11:27:54.591Z,84.20
2017-11-27T11:30:22.056Z,84.00
2017-11-27T11:32:51.879Z,84.00
2017-11-27T11:35:19.320Z,84.10
2017-11-27T11:37:46.788Z,84.20
2017-11-27T11:40:14.793Z,84.30
2017-11-27T11:42:43.746Z,84.50
2017-11-27T11:45:11.212Z,84.50
2017-11-27T11:47:38.870Z,84.50
2017-11-27T11:50:07.933Z,84.50
2017-11-27T11:52:35.495Z,84.50
2017-11-27T11:55:03.086Z,84.30
2017-11-27T11:57:30.518Z,84.50
2017-11-27T11:59:58.469Z,84.50
2017-11-27T12:02:25.923Z,84.30
2017-11-27T12:04:53.523Z,84.70
2017-11-27T12:07:21.159Z,84.80
2017-11-27T12:09:48.581Z,85.00
2017-11-27T12:12:16.613Z,84.80
2017-11-27T12:14:44.049Z,84.90
2017-11-27T12:17:11.511Z,85.00
2017-11-27T12:19:38.941Z,84.90
2017-11-27T12:22:06.500Z,84.80
2017-11-27T12:24:33.938Z,84.70
2017-11-27T12:27:01.409Z,84.80
2017-11-27T12:29:29.515Z,85.10
2017-11-27T12:31:56.978Z,84.90
2017-11-27T12:34:24.448Z,85.10
2017-11-27T12:36:51.896Z,85.10
2017-11-27T12:39:19.414Z,85.10
2017-11-27T12:41:46.938Z,85.30
2017-11-27T12:44:15.586Z,85.40
2017-11-27T12:46:43.037Z,85.40
2017-11-27T12:49:10.534Z,85.40
2017-11-27T12:51:38.784Z,85.50
2017-11-27T12:54:06.304Z,86.00
2017-11-27T12:56:34.306Z,85.70
2017-11-27T12:59:01.743Z,85.60
2017-11-27T13:01:29.214Z,85.60
2017-11-27T13:03:56.683Z,85.50
2017-11-27T13:06:24.203Z,85.40
2017-11-27T13:08:51.787Z,85.60
2017-11-27T13:11:19.230Z,85.70
2017-11-27T13:13:46.808Z,85.70
2017-11-27T13:16:14.246Z,85.50
2017-11-27T13:18:42.124Z,85.50
2017-11-27T13:21:10.189Z,85.50
2017-11-27T13:23:37.687Z,86.10
2017-11-27T13:26:06.027Z,85.60
2017-11-27T13:28:33.689Z,85.60
2017-11-27T13:31:01.293Z,85.40
2017-11-27T13:33:28.730Z,85.50
2017-11-27T13:35:57.089Z,85.80
2017-11-27T13:38:24.570Z,85.70
2017-11-27T13:40:52.989Z,85.80
2017-11-27T13:43:20.785Z,85.80
2017-11-27T13:45:48.229Z,85.80
2017-11-27T13:48:15.701Z,85.70
2017-11-27T13:50:43.143Z,85.70
2017-11-27T13:53:10.616Z,85.80
2017-11-27T13:55:38.502Z,85.70
2017-11-27T13:58:06.734Z,85.90
2017-11-27T14:00:34.179Z,85.90
2017-11-27T14:03:01.685Z,85.90
2017-11-27T14:05:29.166Z,85.70
2017-11-27T14:07:56.710Z,85.80
2017-11-27T14:10:24.914Z,85.70
2017-11-27T14:12:52.662Z,85.60
2017-11-27T14:15:20.093Z,85.50
2017-11-27T14:17:48.205Z,85.50
2017-11-27T14:20:15.776Z,85.50
2017-11-27T14:22:43.586Z,85.60
2017-11-27T14:25:11.043Z,85.60
2017-11-27T14:27:38.507Z,86.30
2017-11-27T14:30:06.779Z,86.00
2017-11-27T14:32:35.126Z,86.60
2017-11-27T14:35:02.600Z,85.80
2017-11-27T14:37:30.149Z,86.00
2017-11-27T14:39:57.621Z,86.20
2017-11-27T14:42:25.852Z,86.40
2017-11-27T14:44:53.787Z,86.40
2017-11-27T14:47:22.328Z,86.30
2017-11-27T14:49:50.063Z,86.30
2017-11-27T14:52:17.993Z,86.30
2017-11-27T14:54:46.232Z,86.40
2017-11-27T14:57:13.687Z,86.30
2017-11-27T14:59:41.167Z,86.40
2017-11-27T15:02:09.264Z,86.30
2017-11-27T15:04:36.740Z,86.50
2017-11-27T15:07:04.511Z,86.40
2017-11-27T15:09:31.988Z,86.50
2017-11-27T15:12:00.191Z,86.50
2017-11-27T15:14:27.658Z,86.50
2017-11-27T15:16:55.872Z,86.90
2017-11-27T15:19:23.568Z,86.80
2017-11-27T15:21:51.073Z,86.70
2017-11-27T15:24:18.558Z,86.60
2017-11-27T15:26:46.211Z,86.60
2017-11-27T15:29:13.644Z,86.60
2017-11-27T15:31:41.111Z,86.70
2017-11-27T15:34:08.650Z,86.60
2017-11-27T15:36:36.878Z,86.60
2017-11-27T15:39:04.320Z,86.60
2017-11-27T15:41:31.795Z,86.40
2017-11-27T15:43:59.777Z,86.30
2017-11-27T15:46:27.268Z,86.30
2017-11-27T15:48:55.411Z,86.10
2017-11-27T15:51:22.869Z,85.90
2017-11-27T15:53:50.326Z,85.80
2017-11-27T15:56:18.041Z,85.80
2017-11-27T15:58:45.494Z,85.70
2017-11-27T16:01:13.187Z,85.60
2017-11-27T16:03:40.921Z,85.60
2017-11-27T16:06:08.374Z,85.50
2017-11-27T16:08:35.838Z,85.50
2017-11-27T16:11:03.279Z,85.70
2017-11-27T16:13:30.785Z,85.90
2017-11-27T16:15:58.434Z,86.00
2017-11-27T16:18:25.881Z,85.90
2017-11-27T16:20:53.354Z,85.90
2017-11-27T16:23:20.801Z,85.70
2017-11-27T16:25:48.262Z,85.90
2017-11-27T16:28:15.763Z,86.00
2017-11-27T16:30:43.248Z,85.80
2017-11-27T16:33:11.053Z,85.90
2017-11-27T16:35:39.019Z,85.90
2017-11-27T16:38:06.468Z,85.90
2017-11-27T16:40:33.922Z,85.80
2017-11-27T16:43:01.759Z,85.70
2017-11-27T16:45:29.220Z,85.60
2017-11-27T16:47:57.014Z,85.60
2017-11-27T16:50:24.454Z,85.70
2017-11-27T16:52:52.198Z,85.70
2017-11-27T16:55:20.047Z,85.70
2017-11-27T16:57:47.523Z,85.80
2017-11-27T17:00:15.082Z,85.60
2017-11-27T17:02:42.538Z,85.80
2017-11-27T17:05:09.984Z,85.80
2017-11-27T17:07:37.551Z,85.80
2017-11-27T17:10:05.046Z,85.90
2017-11-27T17:12:32.540Z,85.80
2017-11-27T17:15:00.263Z,85.90
2017-11-27T17:17:27.786Z,85.80
2017-11-27T17:19:55.242Z,85.80
2017-11-27T17:22:22.738Z,85.90
2017-11-27T17:24:50.257Z,86.20
2017-11-27T17:27:17.718Z,86.30
2017-11-27T17:29:45.186Z,86.40
2017-11-27T17:32:13.283Z,86.40
2017-11-27T17:34:40.765Z,86.50
2017-11-27T17:37:09.014Z,86.40
2017-11-27T17:39:36.467Z,86.40
2017-11-27T17:42:03.938Z,86.50
2017-11-27T17:44:32.715Z,87.00
2017-11-27T17:47:00.192Z,86.50
2017-11-27T17:49:28.409Z,86.20
2017-11-27T17:51:55.907Z,86.20
2017-11-27T17:54:23.363Z,86.40
2017-11-27T17:56:50.875Z,86.70
2017-11-27T17:59:18.332Z,86.70
2017-11-27T18:01:46.243Z,86.50
2017-11-27T18:04:13.711Z,86.20
2017-11-27T18:06:41.181Z,86.10
2017-11-27T18:09:09.399Z,86.10
2017-11-27T18:11:36.969Z,86.10
2017-11-27T18:14:04.433Z,86.20
2017-11-27T18:16:31.993Z,86.30
2017-11-27T18:18:59.659Z,86.10
2017-11-27T18:21:27.158Z,86.10
2017-11-27T18:23:54.744Z,86.30
2017-11-27T18:26:22.192Z,86.00
2017-11-27T18:28:50.198Z,86.10
2017-11-27T18:31:18.336Z,86.20
2017-11-27T18:33:45.775Z,86.20
2017-11-27T18:36:13.252Z,86.20
2017-11-27T18:38:40.809Z,86.30
2017-11-27T18:41:08.282Z,86.40
2017-11-27T18:43:36.537Z,86.50
2017-11-27T18:46:04.543Z,86.60
2017-11-27T18:48:32.090Z,86.60
2017-11-27T18:51:00.344Z,83.60
2017-11-27T18:53:27.902Z,83.10
2017-11-27T18:55:55.494Z,81.40
2017-11-27T18:58:23.500Z,81.20
2017-11-27T19:00:51.718Z,82.30
2017-11-27T19:03:19.202Z,82.20
2017-11-27T19:05:46.983Z,82.80
2017-11-27T19:08:15.405Z,84.20
2017-11-27T19:10:42.934Z,83.90
2017-11-27T19:13:11.443Z,84.70
2017-11-27T19:15:38.917Z,84.70
2017-11-27T19:18:06.560Z,84.90
2017-11-27T19:20:34.480Z,85.00
2017-11-27T19:23:02.053Z,85.00
2017-11-27T19:25:29.546Z,80.60
2017-11-27T19:27:57.253Z,81.00
2017-11-27T19:30:24.691Z,81.70
2017-11-27T19:32:52.216Z,82.10
2017-11-27T19:35:19.678Z,83.00
2017-11-27T19:37:47.284Z,83.50
2017-11-27T19:40:15.335Z,84.00
2017-11-27T19:42:43.716Z,84.20
2017-11-27T19:45:11.450Z,84.40
2017-11-27T19:47:39.009Z,84.50
2017-11-27T19:50:06.484Z,84.70
2017-11-27T19:52:33.947Z,84.90
2017-11-27T19:55:02.096Z,85.10
2017-11-27T19:57:29.618Z,81.20
2017-11-27T19:59:57.827Z,79.30
2017-11-27T20:02:25.385Z,79.20
2017-11-27T20:04:52.883Z,79.50
2017-11-27T20:07:20.437Z,79.20
2017-11-27T20:09:47.961Z,80.20
2017-11-27T20:12:15.422Z,80.00
2017-11-27T20:14:43.076Z,80.50
2017-11-27T20:17:11.702Z,81.10
2017-11-27T20:19:39.147Z,81.10
2017-11-27T20:22:06.609Z,80.30
2017-11-27T20:24:34.114Z,80.50
2017-11-27T20:27:01.791Z,80.30
2017-11-27T20:29:29.345Z,80.40
2017-11-27T20:31:57.318Z,80.50
2017-11-27T20:34:24.776Z,80.50
2017-11-27T20:36:52.770Z,80.40
2017-11-27T20:39:20.284Z,80.70
2017-11-27T20:41:47.804Z,80.40
2017-11-27T20:44:15.759Z,80.60
2017-11-27T20:46:43.286Z,80.60
2017-11-27T20:49:11.664Z,81.00
2017-11-27T20:51:39.393Z,80.90
2017-11-27T20:54:07.647Z,81.40
2017-11-27T20:56:35.601Z,81.40
2017-11-27T20:59:03.076Z,81.30
2017-11-27T21:01:31.052Z,81.60
2017-11-27T21:03:58.664Z,81.90
2017-11-27T21:06:26.219Z,81.80
2017-11-27T21:08:53.760Z,82.20
2017-11-27T21:11:21.371Z,82.40
2017-11-27T21:13:49.196Z,82.50
2017-11-27T21:16:17.823Z,82.70
2017-11-27T21:18:45.262Z,82.90
2017-11-27T21:21:13.956Z,83.00
2017-11-27T21:23:41.573Z,83.00
2017-11-27T21:26:09.143Z,82.20
2017-11-27T21:28:36.674Z,81.90
2017-11-27T21:31:04.261Z,82.10
2017-11-27T21:33:31.894Z,81.20
2017-11-27T21:36:00.709Z,81.20
2017-11-27T21:38:28.372Z,81.20
2017-11-27T21:40:56.063Z,81.10
2017-11-27T21:43:23.797Z,81.00
2017-11-27T21:45:51.257Z,80.90
2017-11-27T21:48:18.731Z,81.20
2017-11-27T21:50:46.814Z,81.10
2017-11-27T21:53:14.283Z,81.00
2017-11-27T21:55:41.793Z,80.90
2017-11-27T21:58:09.256Z,80.10
2017-11-27T22:00:36.728Z,80.10
2017-11-27T22:03:04.398Z,79.90
2017-11-27T22:05:31.856Z,79.90
2017-11-27T22:07:59.345Z,80.10
2017-11-27T22:10:27.566Z,80.60
2017-11-27T22:12:55.657Z,80.60
2017-11-27T22:15:23.105Z,80.70
2017-11-27T22:17:50.905Z,80.80
2017-11-27T22:20:18.344Z,80.70
2017-11-27T22:22:45.832Z,81.20
2017-11-27T22:25:14.064Z,81.20
2017-11-27T22:27:41.511Z,81.20
2017-11-27T22:30:09.123Z,81.30
2017-11-27T22:32:37.905Z,81.40
2017-11-27T22:35:06.123Z,81.60
2017-11-27T22:37:33.602Z,81.60
2017-11-27T22:40:01.734Z,81.20
2017-11-27T22:42:29.522Z,81.40
2017-11-27T22:44:57.898Z,81.40
2017-11-27T22:47:25.367Z,81.40
2017-11-27T22:49:52.935Z,81.20
2017-11-27T22:52:20.611Z,81.20
2017-11-27T22:54:48.179Z,81.00
2017-11-27T22:57:15.884Z,80.80
2017-11-27T22:59:43.447Z,80.60
2017-11-27T23:02:11.341Z,80.30
2017-11-27T23:04:38.942Z,80.40
2017-11-27T23:07:07.150Z,80.50
2017-11-27T23:09:34.611Z,80.40
2017-11-27T23:12:02.058Z,80.90
2017-11-27T23:14:29.858Z,80.20
2017-11-27T23:16:57.298Z,80.30
2017-11-27T23:19:24.763Z,80.20
2017-11-27T23:21:52.239Z,80.20
2017-11-27T23:24:19.703Z,80.10
2017-11-27T23:26:47.209Z,79.80
2017-11-27T23:29:15.203Z,80.30
2017-11-27T23:31:43.047Z,80.10
2017-11-27T23:34:10.634Z,79.60
2017-11-27T23:36:38.067Z,79.80
2017-11-27T23:39:05.963Z,79.90
2017-11-27T23:41:33.921Z,79.90
2017-11-27T23:44:01.791Z,79.90
2017-11-27T23:46:29.238Z,79.90
2017-11-27T23:48:56.787Z,79.50
2017-11-27T23:51:24.227Z,79.00
2017-11-27T23:53:51.702Z,79.40
2017-11-27T23:56:19.152Z,79.20
2017-11-27T23:58:46.806Z,79.30
